Time;durP1;ratioP1;P1;durP2;ratioP2;P2;SDS_P1;SDS_P2;PMS_P1;PMS_P2;Temp;Humidity;BMP_temperature;BMP_pressure;BME280_temperature;BME280_humidity;BME280_pressure;Samples;Min_cycle;Max_cycle;Signal;HPM_P1;HPM_P2
2022/01/12 00:01:13;;;;;;;10.95;4.00;;;24.30;59.70;;;;;;4999280;28;20023;-79
2022/01/12 00:03:41;;;;;;;16.65;4.50;;;24.20;59.60;;;;;;5001114;28;20037;-79
2022/01/12 00:06:08;;;;;;;12.52;2.78;;;24.20;59.60;;;;;;4998048;28;20133;-74
2022/01/12 00:08:34;;;;;;;21.58;4.18;;;24.20;59.60;;;;;;4996008;28;20422;-78
2022/01/12 00:11:03;;;;;;;10.38;4.38;;;24.20;59.70;;;;;;4997424;28;20113;-79
2022/01/12 00:13:30;;;;;;;16.70;4.43;;;24.20;59.80;;;;;;4994196;28;20036;-78
2022/01/12 00:15:56;;;;;;;10.60;3.53;;;24.20;59.80;;;;;;4996922;28;20073;-78
2022/01/12 00:18:23;;;;;;;16.75;3.40;;;24.10;59.90;;;;;;4999052;28;20381;-76
2022/01/12 00:20:50;;;;;;;22.35;4.50;;;24.10;59.90;;;;;;4995900;28;20073;-78
2022/01/12 00:23:18;;;;;;;16.33;5.43;;;24.10;60.00;;;;;;4997673;28;20026;-79
2022/01/12 00:34:08;;;;;;;;;;;24.10;60.40;;;;;;4998123;28;20084;-77
2022/01/12 00:36:35;;;;;;;24.42;4.95;;;24.00;60.60;;;;;;4995622;28;20538;-78
2022/01/12 00:39:03;;;;;;;14.30;5.22;;;24.00;60.70;;;;;;4994434;28;20045;-79
2022/01/12 00:41:30;;;;;;;14.15;4.80;;;24.00;60.70;;;;;;4997108;28;20747;-79
2022/01/12 00:44:00;;;;;;;10.38;3.38;;;24.00;60.70;;;;;;4999084;28;20128;-78
2022/01/12 00:46:31;;;;;;;15.32;3.90;;;24.00;60.70;;;;;;4993847;28;20032;-77
2022/01/12 00:48:58;;;;;;;13.25;3.28;;;24.00;60.60;;;;;;4996454;28;20113;-78
2022/01/12 00:51:27;;;;;;;14.38;4.00;;;24.00;60.60;;;;;;4997838;28;20034;-78
2022/01/12 00:53:55;;;;;;;13.45;3.75;;;24.00;60.50;;;;;;5000577;28;20092;-78
2022/01/12 00:56:22;;;;;;;16.90;4.55;;;24.00;60.50;;;;;;4995026;28;20540;-78
2022/01/12 00:58:49;;;;;;;13.77;3.95;;;23.90;61.10;;;;;;5000014;28;20057;-79
2022/01/12 01:01:17;;;;;;;20.35;4.03;;;24.00;60.50;;;;;;4999267;28;20041;-77
2022/01/12 01:03:43;;;;;;;13.48;3.50;;;23.90;60.50;;;;;;4992721;28;20503;-74
2022/01/12 01:06:11;;;;;;;13.20;3.83;;;23.90;60.50;;;;;;5001891;28;20018;-79
2022/01/12 01:08:39;;;;;;;12.93;3.63;;;23.90;60.50;;;;;;4993611;28;20496;-79
2022/01/12 01:11:05;;;;;;;10.55;3.50;;;23.90;60.60;;;;;;4997414;28;20596;-79
2022/01/12 01:13:43;;;;;;;14.63;4.00;;;23.90;60.60;;;;;;4996048;28;20034;-79
2022/01/12 01:16:18;;;;;;;19.48;3.78;;;23.80;60.60;;;;;;4998368;28;20071;-79
2022/01/12 01:27:00;;;;;;;10.90;3.42;;;23.80;60.80;;;;;;4999417;28;20033;-79
2022/01/12 01:29:27;;;;;;;12.02;3.78;;;23.80;60.90;;;;;;4994306;28;20019;-77
2022/01/12 01:31:54;;;;;;;11.82;4.65;;;23.80;61.00;;;;;;4994542;28;20030;-77
2022/01/12 01:34:20;;;;;;;9.68;3.53;;;23.80;61.00;;;;;;4998246;28;20041;-77
2022/01/12 01:36:52;;;;;;;22.63;4.47;;;23.80;61.00;;;;;;5000842;28;20029;-78
2022/01/12 01:39:25;;;;;;;13.63;3.33;;;23.80;61.70;;;;;;4995736;28;20022;-81
2022/01/12 01:41:59;;;;;;;10.35;4.28;;;23.80;61.10;;;;;;4994746;28;20025;-80
2022/01/12 01:55:19;;;;;;;12.43;3.55;;;23.70;61.40;;;;;;5002751;28;20435;-79
2022/01/12 01:57:46;;;;;;;17.25;4.03;;;23.70;61.50;;;;;;5001451;28;20101;-80
2022/01/12 02:00:17;;;;;;;13.15;5.50;;;23.70;61.50;;;;;;5002695;28;20022;-81
2022/01/12 02:02:45;;;;;;;14.52;3.60;;;23.70;61.50;;;;;;4999865;28;20120;-77
2022/01/12 02:05:12;;;;;;;15.52;4.03;;;23.70;61.50;;;;;;4995943;28;20478;-80
2022/01/12 02:07:39;;;;;;;20.95;6.07;;;23.70;61.60;;;;;;5003010;28;20029;-80
2022/01/12 02:10:06;;;;;;;17.55;4.78;;;23.60;61.60;;;;;;5002031;28;20014;-78
2022/01/12 02:12:33;;;;;;;10.25;4.32;;;23.70;61.70;;;;;;5000106;28;20844;-80
2022/01/12 02:15:01;;;;;;;11.07;3.25;;;23.70;61.70;;;;;;5000042;28;20031;-80
2022/01/12 02:17:35;;;;;;;11.93;4.18;;;23.60;61.70;;;;;;5002155;28;20424;-79
2022/01/12 02:36:25;;;;;;;27.85;3.85;;;23.60;62.20;;;;;;4995810;28;20502;-80
2022/01/12 02:41:38;;;;;;;17.10;4.07;;;23.50;62.40;;;;;;4996341;28;20124;-78
2022/01/12 02:55:07;;;;;;;18.98;4.15;;;23.40;62.40;;;;;;4996447;28;20033;-81
2022/01/12 02:57:33;;;;;;;21.35;4.53;;;23.40;62.30;;;;;;4999180;28;20014;-81
2022/01/12 03:00:09;;;;;;;18.23;4.78;;;23.30;62.20;;;;;;4994989;28;20010;-79
2022/01/12 03:02:40;;;;;;;29.45;6.15;;;23.30;62.30;;;;;;4994835;28;20389;-79
2022/01/12 03:07:45;;;;;;;21.13;4.65;;;23.30;62.60;;;;;;4996942;28;20037;-78
2022/01/12 03:10:12;;;;;;;24.02;5.53;;;23.30;62.60;;;;;;4995978;28;20029;-80
2022/01/12 03:12:43;;;;;;;16.20;4.10;;;23.30;63.30;;;;;;4995465;28;20034;-79
2022/01/12 03:15:10;;;;;;;11.98;2.72;;;23.30;62.60;;;;;;4996252;28;20540;-80
2022/01/12 03:17:37;;;;;;;16.65;5.82;;;23.30;62.60;;;;;;4996679;28;20100;-75
2022/01/12 03:20:06;;;;;;;18.58;3.65;;;23.20;62.50;;;;;;5001823;28;20438;-78
2022/01/12 03:22:33;;;;;;;28.17;4.88;;;23.20;62.60;;;;;;4995211;28;20015;-75
2022/01/12 03:24:59;;;;;;;24.08;5.18;;;23.20;62.80;;;;;;4996362;28;20060;-78
2022/01/12 03:27:27;;;;;;;23.45;6.22;;;23.20;63.00;;;;;;4990340;28;20039;-77
2022/01/12 03:29:56;;;;;;;25.23;5.20;;;23.20;63.10;;;;;;4998628;28;20029;-78
2022/01/12 03:32:34;;;;;;;18.92;4.07;;;23.20;63.10;;;;;;4998781;28;20018;-78
2022/01/12 03:35:08;;;;;;;20.95;5.55;;;23.20;63.10;;;;;;4997580;28;20026;-77
2022/01/12 03:38:19;;;;;;;29.92;5.78;;;23.20;63.00;;;;;;5003216;28;20064;-77
2022/01/12 03:40:27;;;;;;;34.03;5.50;;;23.20;63.20;;;;;;4999924;28;20057;-78
2022/01/12 03:42:53;;;;;;;32.05;5.97;;;23.10;63.50;;;;;;4999739;28;20061;-80
2022/01/12 03:45:20;;;;;;;37.15;6.07;;;23.10;63.60;;;;;;4998894;28;20021;-79
2022/01/12 03:47:46;;;;;;;35.63;6.63;;;23.10;63.60;;;;;;5000164;28;20045;-77
2022/01/12 03:50:13;;;;;;;19.25;4.35;;;23.10;64.20;;;;;;5004621;28;20022;-76
2022/01/12 03:52:39;;;;;;;19.05;4.78;;;23.10;63.20;;;;;;4993985;28;20070;-77
2022/01/12 03:55:06;;;;;;;29.13;4.43;;;22.90;63.70;;;;;;5002884;28;20014;-73
2022/01/12 03:57:33;;;;;;;108.43;73.88;;;22.70;64.50;;;;;;4998629;28;20468;-77
2022/01/12 03:59:59;;;;;;;53.50;31.33;;;22.60;65.20;;;;;;4996764;28;20497;-77
2022/01/12 04:02:26;;;;;;;59.25;26.85;;;22.40;65.50;;;;;;4998215;28;20477;-76
2022/01/12 04:05:09;;;;;;;59.25;19.25;;;22.40;65.70;;;;;;4993317;28;20068;-78
2022/01/12 04:10:20;;;;;;;26.40;7.57;;;22.50;65.40;;;;;;4997092;28;20072;-75
2022/01/12 04:12:46;;;;;;;19.20;5.57;;;22.60;65.50;;;;;;4997457;28;20038;-78
2022/01/12 04:15:13;;;;;;;13.75;4.32;;;22.70;65.20;;;;;;4996723;28;20429;-74
2022/01/12 04:17:40;;;;;;;18.15;4.60;;;22.70;65.10;;;;;;4997741;28;20161;-74
2022/01/12 04:20:06;;;;;;;29.00;5.03;;;22.70;65.00;;;;;;4986640;28;20033;-72
2022/01/12 04:25:57;;;;;;;35.33;6.68;;;22.80;64.70;;;;;;4987900;28;20034;-74
2022/01/12 04:28:24;;;;;;;;;;;22.80;64.80;;;;;;4990924;28;20026;-79
2022/01/12 04:30:52;;;;;;;45.92;14.98;;;22.80;65.80;;;;;;4983265;28;20420;-73
2022/01/12 04:33:19;;;;;;;41.72;11.07;;;22.80;65.80;;;;;;4991027;28;20042;-83
2022/01/12 04:35:50;;;;;;;30.25;7.18;;;22.80;65.90;;;;;;4982986;28;20527;-74
2022/01/12 04:38:19;;;;;;;26.02;6.13;;;22.80;65.70;;;;;;4987194;28;20036;-72
2022/01/12 04:40:47;;;;;;;38.00;7.10;;;22.80;65.50;;;;;;4983691;28;20034;-74
2022/01/12 04:43:14;;;;;;;38.13;11.55;;;22.80;65.50;;;;;;4987966;28;20102;-76
2022/01/12 04:50:42;;;;;;;18.52;5.82;;;22.80;65.30;;;;;;4989642;28;20031;-76
2022/01/12 04:53:09;;;;;;;29.92;5.97;;;22.80;65.30;;;;;;4984922;28;20074;-76
2022/01/12 04:56:15;;;;;;;37.15;6.22;;;22.90;65.30;;;;;;4983173;28;20022;-76
2022/01/12 04:59:21;;;;;;;21.40;4.88;;;22.90;65.40;;;;;;4988321;28;20049;-77
2022/01/12 05:12:51;;;;;;;13.95;3.78;;;22.90;65.50;;;;;;4981780;28;20030;-76
2022/01/12 05:16:00;;;;;;;21.15;3.85;;;23.00;65.60;;;;;;4979722;28;20038;-77
2022/01/12 05:19:07;;;;;;;13.43;4.25;;;22.90;65.50;;;;;;4965026;28;20025;-77
2022/01/12 05:22:13;;;;;;;23.25;4.65;;;23.00;65.60;;;;;;4962651;28;20422;-76
2022/01/12 05:25:19;;;;;;;18.25;5.55;;;23.00;65.70;;;;;;4989944;28;20512;-77
2022/01/12 05:28:05;;;;;;;;;;;23.00;65.80;;;;;;4990010;28;20022;-77
2022/01/12 05:31:11;;;;;;;27.38;5.38;;;23.00;65.80;;;;;;4992266;28;20051;-75
2022/01/12 05:34:17;;;;;;;9.27;3.22;;;23.00;65.80;;;;;;4986878;28;20050;-77
2022/01/12 05:37:23;;;;;;;13.60;3.33;;;23.10;65.90;;;;;;4990072;28;20463;-76
2022/01/12 05:40:29;;;;;;;14.50;3.70;;;23.10;65.90;;;;;;4984312;28;20026;-77
2022/01/12 05:43:37;;;;;;;12.90;3.58;;;23.10;65.90;;;;;;4987626;28;20041;-76
2022/01/12 05:46:44;;;;;;;10.25;3.15;;;23.20;66.00;;;;;;5001555;28;20432;-77
2022/01/12 05:49:50;;;;;;;11.57;2.95;;;23.20;66.00;;;;;;4991753;28;20041;-76
2022/01/12 05:52:56;;;;;;;13.10;3.88;;;23.20;66.10;;;;;;4990486;28;20054;-76
2022/01/12 05:56:02;;;;;;;11.00;3.60;;;23.30;66.00;;;;;;4991695;28;20026;-76
2022/01/12 05:59:08;;;;;;;10.30;2.67;;;23.30;65.90;;;;;;4990556;28;20392;-77
2022/01/12 06:02:14;;;;;;;10.00;2.83;;;23.30;65.80;;;;;;4988796;28;20022;-77
2022/01/12 06:05:20;;;;;;;10.85;2.60;;;23.30;65.70;;;;;;4988478;28;20054;-76
2022/01/12 06:08:26;;;;;;;12.40;3.80;;;23.40;65.70;;;;;;4988392;28;20893;-76
2022/01/12 06:11:32;;;;;;;13.50;3.47;;;23.40;65.70;;;;;;4987581;28;20022;-75
2022/01/12 06:14:39;;;;;;;10.95;3.05;;;23.50;65.60;;;;;;4988235;28;20077;-76
2022/01/12 06:17:47;;;;;;;15.73;3.90;;;23.50;65.70;;;;;;4989701;28;20027;-76
2022/01/12 06:20:53;;;;;;;14.13;3.95;;;23.60;65.80;;;;;;4991395;28;20029;-76
2022/01/12 06:23:59;;;;;;;11.45;3.70;;;23.60;65.80;;;;;;4994964;28;20038;-76
2022/01/12 06:27:08;;;;;;;23.55;6.25;;;23.70;65.70;;;;;;4992438;28;20026;-76
2022/01/12 06:33:35;;;;;;;14.98;3.67;;;23.80;65.40;;;;;;4989374;28;20141;-77
2022/01/12 06:36:41;;;;;;;14.40;3.90;;;23.80;65.20;;;;;;4990172;28;20026;-76
2022/01/12 06:39:47;;;;;;;14.20;3.85;;;23.80;65.20;;;;;;4989469;28;20034;-75
2022/01/12 06:42:53;;;;;;;14.00;3.15;;;23.90;65.20;;;;;;4991459;28;20503;-76
2022/01/12 06:45:59;;;;;;;18.42;5.22;;;24.00;65.20;;;;;;5000139;28;20033;-76
2022/01/12 06:49:05;;;;;;;11.93;2.75;;;24.00;65.30;;;;;;5002214;28;20022;-76
2022/01/12 06:52:11;;;;;;;15.82;4.22;;;24.00;65.20;;;;;;5000708;28;20042;-76
2022/01/12 06:55:17;;;;;;;6.50;2.70;;;24.10;65.20;;;;;;5000224;28;20033;-77
2022/01/12 06:58:23;;;;;;;17.55;3.50;;;24.10;64.90;;;;;;5002085;28;20024;-76
2022/01/12 07:01:29;;;;;;;12.70;3.35;;;24.20;64.90;;;;;;4997388;28;20027;-75
2022/01/12 07:04:15;;;;;;;;;;;24.20;64.70;;;;;;4996386;28;20491;-76
2022/01/12 07:07:23;;;;;;;13.82;2.80;;;24.30;64.40;;;;;;5001421;28;20008;-77
2022/01/12 07:10:29;;;;;;;13.02;3.38;;;24.30;63.90;;;;;;4998619;28;20026;-77
2022/01/12 07:13:15;;;;;;;;;;;24.30;63.60;;;;;;4996278;28;20042;-77
2022/01/12 07:16:21;;;;;;;13.82;2.97;;;24.40;63.40;;;;;;4998420;28;19949;-77
2022/01/12 07:19:27;;;;;;;11.93;2.30;;;24.40;63.10;;;;;;4995570;28;20077;-77
2022/01/12 07:22:33;;;;;;;9.30;2.75;;;24.40;62.70;;;;;;4999026;28;20034;-76
2022/01/12 07:25:19;;;;;;;;;;;24.40;62.50;;;;;;4991875;28;20436;-77
2022/01/12 07:28:25;;;;;;;29.33;5.20;;;24.50;62.50;;;;;;5000447;28;20428;-77
2022/01/12 07:31:32;;;;;;;24.48;3.83;;;24.50;62.70;;;;;;4994343;28;20031;-77
2022/01/12 07:34:38;;;;;;;63.42;6.45;;;24.60;62.70;;;;;;4997620;28;20084;-78
2022/01/12 07:37:44;;;;;;;12.95;2.92;;;24.70;62.70;;;;;;4993223;28;20022;-78
2022/01/12 07:40:50;;;;;;;12.00;2.80;;;24.70;61.80;;;;;;4996927;28;20523;-77
2022/01/12 07:43:56;;;;;;;24.20;4.13;;;24.80;61.20;;;;;;4999738;28;20033;-78
2022/01/12 07:46:42;;;;;;;;;;;24.90;60.90;;;;;;4997875;28;20453;-79
2022/01/12 07:49:48;;;;;;;19.02;3.28;;;25.00;60.60;;;;;;5000642;28;20004;-76
2022/01/12 07:52:34;;;;;;;;;;;25.10;60.40;;;;;;4989414;28;20520;-78
2022/01/12 07:55:40;;;;;;;14.30;3.20;;;25.10;60.20;;;;;;4998938;28;20000;-77
2022/01/12 07:58:26;;;;;;;;;;;25.20;60.10;;;;;;4996370;28;20052;-78
2022/01/12 08:01:32;;;;;;;14.82;3.38;;;25.30;60.10;;;;;;5001922;28;20384;-77
2022/01/12 08:04:18;;;;;;;;;;;25.40;59.90;;;;;;5000860;28;20072;-80
2022/01/12 08:07:24;;;;;;;13.00;3.47;;;25.50;59.60;;;;;;4998179;28;20283;-77
2022/01/12 08:10:10;;;;;;;;;;;25.60;59.30;;;;;;4987784;28;20481;-78
2022/01/12 08:13:16;;;;;;;11.27;3.00;;;25.70;59.20;;;;;;5004109;28;19920;-77
2022/01/12 08:16:02;;;;;;;;;;;25.80;58.60;;;;;;4999169;28;20053;-77
2022/01/12 08:19:08;;;;;;;8.80;2.80;;;25.80;58.10;;;;;;4999672;28;20388;-77
2022/01/12 08:22:14;;;;;;;6.82;2.40;;;25.90;57.50;;;;;;5002615;28;20029;-78
2022/01/12 08:25:20;;;;;;;8.95;2.58;;;26.00;57.20;;;;;;4998218;28;20390;-78
2022/01/12 08:28:06;;;;;;;;;;;26.00;57.50;;;;;;5001565;28;20039;-75
2022/01/12 08:31:12;;;;;;;15.77;3.03;;;26.10;57.00;;;;;;4996047;28;19909;-76
2022/01/12 08:33:58;;;;;;;;;;;26.20;57.10;;;;;;4993817;28;20034;-77
2022/01/12 08:37:04;;;;;;;13.20;4.35;;;26.30;57.10;;;;;;4997663;28;20249;-78
2022/01/12 08:40:10;;;;;;;18.52;4.40;;;26.40;56.90;;;;;;5001029;28;20029;-77
2022/01/12 08:42:56;;;;;;;;;;;26.50;57.00;;;;;;4995249;28;20038;-75
2022/01/12 08:46:02;;;;;;;12.43;3.53;;;26.50;56.70;;;;;;5001270;28;20893;-77
2022/01/12 08:49:08;;;;;;;8.40;2.50;;;26.60;56.20;;;;;;4994742;28;20018;-76
2022/01/12 08:52:14;;;;;;;12.63;2.85;;;26.70;56.20;;;;;;4994664;28;20065;-77
2022/01/12 08:55:20;;;;;;;7.15;2.22;;;26.80;56.10;;;;;;4996614;28;20080;-77
2022/01/12 08:58:26;;;;;;;7.95;3.17;;;26.90;55.70;;;;;;4995453;28;20436;-77
2022/01/12 09:01:32;;;;;;;17.73;3.50;;;27.00;55.60;;;;;;4996306;28;20018;-76
2022/01/12 09:04:38;;;;;;;12.27;4.82;;;27.10;56.00;;;;;;4992139;28;20114;-75
2022/01/12 09:07:44;;;;;;;7.82;2.60;;;27.20;55.20;;;;;;4994194;28;20493;-75
2022/01/12 09:10:50;;;;;;;5.72;2.33;;;27.40;55.30;;;;;;4997333;28;20022;-75
2022/01/12 09:13:56;;;;;;;12.60;3.00;;;27.50;54.40;;;;;;4998581;28;20034;-76
2022/01/12 09:17:02;;;;;;;9.68;2.72;;;27.70;53.80;;;;;;4997829;28;20040;-76
2022/01/12 09:20:08;;;;;;;10.60;4.30;;;27.80;53.80;;;;;;4992213;28;20027;-76
2022/01/12 09:23:15;;;;;;;11.27;2.95;;;27.80;53.70;;;;;;4996481;28;20453;-76
2022/01/12 09:26:21;;;;;;;13.32;3.20;;;28.00;53.60;;;;;;4990683;28;20057;-76
2022/01/12 09:29:27;;;;;;;9.43;3.65;;;28.00;53.30;;;;;;4996141;28;20038;-76
2022/01/12 09:32:33;;;;;;;10.70;3.45;;;28.10;53.10;;;;;;4994468;28;20512;-75
2022/01/12 09:35:39;;;;;;;8.80;3.47;;;28.10;53.00;;;;;;4995639;28;20088;-76
2022/01/12 09:38:45;;;;;;;10.57;3.67;;;28.20;52.80;;;;;;4995805;28;20096;-74
2022/01/12 09:41:51;;;;;;;9.85;3.47;;;28.20;52.50;;;;;;4997250;28;20018;-75
2022/01/12 09:44:57;;;;;;;10.65;2.90;;;28.30;52.40;;;;;;5000819;28;20026;-76
2022/01/12 09:48:09;;;;;;;14.65;3.15;;;28.40;52.40;;;;;;4999520;28;20663;-76
2022/01/12 09:51:15;;;;;;;9.40;2.33;;;28.50;52.00;;;;;;4999643;28;20026;-75
2022/01/12 09:54:21;;;;;;;9.75;3.42;;;28.60;51.60;;;;;;4997970;28;20548;-74
2022/01/12 09:57:27;;;;;;;13.15;3.28;;;28.70;51.40;;;;;;4994212;28;20045;-75
2022/01/12 10:00:33;;;;;;;11.23;4.07;;;28.70;51.00;;;;;;4995247;28;20026;-75
2022/01/12 10:03:39;;;;;;;15.57;2.90;;;28.80;51.10;;;;;;4995049;28;20038;-75
2022/01/12 10:06:53;;;;;;;6.75;2.75;;;28.90;50.90;;;;;;4994290;28;20022;-76
2022/01/12 10:10:00;;;;;;;10.90;4.18;;;29.00;50.60;;;;;;4996151;28;20432;-76
2022/01/12 10:13:12;;;;;;;10.85;2.60;;;29.00;50.50;;;;;;5001609;28;20025;-75
2022/01/12 10:16:20;;;;;;;9.57;3.03;;;29.10;50.40;;;;;;5002640;28;20497;-75
2022/01/12 10:19:06;;;;;;;8.23;2.70;;;29.20;50.30;;;;;;4999340;28;20496;-75
2022/01/12 10:22:14;;;;;;;7.25;2.60;;;29.20;50.00;;;;;;4996669;28;20521;-75
2022/01/12 10:25:20;;;;;;;8.60;2.90;;;29.30;49.90;;;;;;5000363;28;20045;-75
2022/01/12 10:28:35;;;;;;;9.48;2.80;;;29.40;50.00;;;;;;4998756;28;20030;-75
2022/01/12 10:31:41;;;;;;;11.25;2.88;;;29.50;49.60;;;;;;4998784;28;20488;-76
2022/01/12 10:34:47;;;;;;;8.23;2.40;;;29.60;49.70;;;;;;5001771;28;20044;-77
2022/01/12 10:37:53;;;;;;;18.17;4.40;;;29.60;49.60;;;;;;5000989;28;20029;-76
2022/01/12 10:41:02;;;;;;;9.70;2.85;;;29.70;49.70;;;;;;5000502;28;20083;-76
2022/01/12 10:44:18;;;;;;;6.40;2.83;;;29.70;49.40;;;;;;4995189;28;20022;-75
2022/01/12 10:47:27;;;;;;;5.87;2.33;;;29.80;49.20;;;;;;4995565;28;20481;-75
2022/01/12 10:49:53;;;;;;;11.32;3.45;;;29.90;49.40;;;;;;5001309;28;20038;-76
2022/01/12 10:53:09;;;;;;;9.45;2.63;;;30.00;49.00;;;;;;4998913;28;20062;-74
2022/01/12 10:56:21;;;;;;;6.43;2.03;;;30.00;48.90;;;;;;5000119;28;20030;-74
2022/01/12 10:59:27;;;;;;;9.55;3.13;;;30.10;49.00;;;;;;4997824;28;20549;-74
2022/01/12 11:02:33;;;;;;;8.63;2.58;;;30.10;48.90;;;;;;4998433;28;20086;-76
2022/01/12 11:05:39;;;;;;;7.28;2.13;;;30.20;48.90;;;;;;4999068;28;20034;-77
2022/01/12 11:08:48;;;;;;;10.20;3.25;;;30.30;48.80;;;;;;4997670;28;20026;-76
2022/01/12 11:11:54;;;;;;;13.90;3.85;;;30.30;48.30;;;;;;4997082;28;20528;-76
2022/01/12 11:15:00;;;;;;;11.55;3.10;;;30.40;48.70;;;;;;5002587;28;20072;-75
2022/01/12 11:18:07;;;;;;;10.32;2.95;;;30.50;48.20;;;;;;4998271;28;20022;-76
2022/01/12 11:21:13;;;;;;;9.65;3.63;;;30.50;48.10;;;;;;5006386;28;20050;-74
2022/01/12 11:24:19;;;;;;;8.88;4.25;;;30.60;48.20;;;;;;4994344;28;20486;-74
2022/01/12 11:27:29;;;;;;;7.93;2.95;;;30.60;48.20;;;;;;4997712;28;20084;-76
2022/01/12 11:30:41;;;;;;;10.10;3.40;;;30.60;48.00;;;;;;4998195;28;20905;-75
2022/01/12 11:33:29;;;;;;;9.60;2.78;;;30.70;48.20;;;;;;4999272;28;20040;-75
2022/01/12 11:36:36;;;;;;;8.25;3.03;;;30.80;47.60;;;;;;4995892;28;20022;-74
2022/01/12 11:39:42;;;;;;;7.13;2.72;;;30.80;47.50;;;;;;4994908;28;20084;-76
2022/01/12 11:42:54;;;;;;;9.43;2.83;;;30.90;47.50;;;;;;4996354;28;20380;-78
2022/01/12 11:46:00;;;;;;;10.90;3.05;;;30.90;47.60;;;;;;4997730;28;20041;-77
2022/01/12 11:49:12;;;;;;;7.18;2.65;;;31.00;47.40;;;;;;4996265;28;20022;-78
2022/01/12 11:52:18;;;;;;;5.68;2.40;;;31.00;46.80;;;;;;5000039;28;20062;-78
2022/01/12 11:55:24;;;;;;;9.57;2.45;;;31.00;47.00;;;;;;5001110;28;20067;-78
2022/01/12 11:58:30;;;;;;;8.90;2.40;;;31.00;47.20;;;;;;4999834;28;20104;-79
2022/01/12 12:01:37;;;;;;;9.77;2.83;;;31.00;46.80;;;;;;4998829;28;20119;-78
2022/01/12 12:04:43;;;;;;;9.60;2.53;;;31.00;46.60;;;;;;4998452;28;20049;-79
2022/01/12 12:07:52;;;;;;;12.68;3.80;;;31.00;47.20;;;;;;4994187;28;20026;-78
2022/01/12 12:10:58;;;;;;;8.38;2.30;;;31.10;47.30;;;;;;4998598;28;20050;-79
2022/01/12 12:14:04;;;;;;;10.88;2.53;;;31.20;47.30;;;;;;4996455;28;20057;-76
2022/01/12 12:17:10;;;;;;;12.48;3.97;;;31.30;47.30;;;;;;4996125;28;20030;-79
2022/01/12 12:20:16;;;;;;;11.13;3.08;;;31.40;47.10;;;;;;4997216;28;20026;-78
2022/01/12 12:23:26;;;;;;;7.18;2.45;;;31.40;46.60;;;;;;5000572;28;20023;-77
2022/01/12 12:26:32;;;;;;;12.02;3.22;;;31.40;46.70;;;;;;4996894;28;20109;-78
2022/01/12 12:29:38;;;;;;;10.82;2.63;;;31.50;46.70;;;;;;4997027;28;20090;-78
2022/01/12 12:32:53;;;;;;;14.27;3.28;;;31.50;46.60;;;;;;5002736;28;20037;-78
2022/01/12 12:35:59;;;;;;;8.05;2.60;;;31.60;46.50;;;;;;5002838;28;20425;-79
2022/01/12 12:39:05;;;;;;;11.75;3.05;;;31.60;46.80;;;;;;5002303;28;20079;-77
2022/01/12 12:42:17;;;;;;;10.82;3.05;;;31.60;46.70;;;;;;4995314;28;20038;-76
2022/01/12 12:45:23;;;;;;;11.00;2.53;;;31.70;46.20;;;;;;4998828;28;20029;-79
2022/01/12 12:48:29;;;;;;;7.50;2.88;;;31.80;45.80;;;;;;4995049;28;20407;-78
2022/01/12 12:51:45;;;;;;;13.70;3.10;;;31.70;46.10;;;;;;4999512;28;20056;-78
2022/01/12 12:54:51;;;;;;;9.70;2.42;;;31.80;46.30;;;;;;4999429;28;20068;-79
2022/01/12 12:58:12;;;;;;;11.88;2.92;;;31.90;46.30;;;;;;4997099;28;20464;-78
2022/01/12 13:01:24;;;;;;;17.33;3.70;;;31.80;46.20;;;;;;4996129;28;20030;-78
2022/01/12 13:04:37;;;;;;;12.60;2.95;;;31.80;46.20;;;;;;4992782;28;20125;-79
2022/01/12 13:07:55;;;;;;;12.50;4.00;;;31.80;46.30;;;;;;4995675;28;20030;-79
2022/01/12 13:11:01;;;;;;;10.65;3.20;;;31.80;47.10;;;;;;4998015;28;20065;-78
2022/01/12 13:14:07;;;;;;;12.35;3.72;;;31.90;46.60;;;;;;4996057;28;20034;-78
2022/01/12 13:17:14;;;;;;;13.70;3.45;;;31.90;46.60;;;;;;4992830;28;20022;-78
2022/01/12 13:23:28;;;;;;;10.55;3.13;;;31.80;46.80;;;;;;4996818;28;20124;-79
2022/01/12 13:26:36;;;;;;;7.68;2.97;;;31.80;46.90;;;;;;4996454;28;20105;-78
2022/01/12 13:29:45;;;;;;;11.02;3.42;;;31.80;47.00;;;;;;4998062;28;20018;-79
2022/01/12 13:32:51;;;;;;;14.98;4.03;;;31.90;47.90;;;;;;4996004;28;20404;-79
2022/01/12 13:35:58;;;;;;;22.27;3.88;;;31.90;47.40;;;;;;4994714;28;20042;-77
2022/01/12 13:39:07;;;;;;;18.27;5.22;;;31.90;47.20;;;;;;4997824;28;20040;-80
2022/01/12 13:42:16;;;;;;;18.48;4.00;;;31.80;47.30;;;;;;4993907;28;20511;-79
2022/01/12 13:45:22;;;;;;;13.43;3.15;;;31.60;47.40;;;;;;5000061;28;20109;-78
2022/01/12 13:48:32;;;;;;;13.20;3.53;;;31.60;47.30;;;;;;4998735;28;20034;-78
2022/01/12 13:51:45;;;;;;;18.20;3.72;;;31.50;48.10;;;;;;5007266;28;20042;-77
2022/01/12 13:54:51;;;;;;;15.88;3.95;;;31.40;47.80;;;;;;5000694;28;20038;-78
2022/01/12 13:57:58;;;;;;;13.68;3.20;;;31.30;47.80;;;;;;4999539;28;20377;-78
2022/01/12 14:01:05;;;;;;;7.95;3.10;;;31.30;48.00;;;;;;5001955;28;20042;-78
2022/01/12 14:04:18;;;;;;;15.60;3.38;;;31.30;48.20;;;;;;4981787;28;20026;-78
2022/01/12 14:07:25;;;;;;;12.32;3.42;;;31.40;48.10;;;;;;5004177;28;20061;-78
2022/01/12 14:10:34;;;;;;;18.83;6.65;;;31.40;47.90;;;;;;4995472;28;20022;-78
2022/01/12 14:13:46;;;;;;;31.27;7.28;;;31.30;48.10;;;;;;4996352;28;20073;-84
2022/01/12 14:16:14;;;;;;;131.93;16.27;;;31.20;48.80;;;;;;4998568;28;20022;-80
2022/01/12 14:18:41;;;;;;;40.22;6.38;;;31.10;49.00;;;;;;4998110;28;20025;-81
2022/01/12 14:21:21;;;;;;;63.85;38.00;;;31.00;49.80;;;;;;4996354;28;20021;-76
2022/01/12 14:23:48;;;;;;;31.15;18.88;;;31.00;49.40;;;;;;5000301;28;20117;-76
2022/01/12 14:26:25;;;;;;;22.40;15.75;;;31.00;49.50;;;;;;5005066;28;20022;-78
2022/01/12 14:28:52;;;;;;;24.83;7.72;;;31.00;50.20;;;;;;5001045;28;20030;-78
2022/01/12 14:31:19;;;;;;;17.92;6.45;;;30.90;50.30;;;;;;4994097;28;20026;-78
2022/01/12 14:33:45;;;;;;;20.92;5.75;;;30.90;50.40;;;;;;4996971;28;20120;-79
2022/01/12 14:36:12;;;;;;;53.75;23.80;;;30.80;50.40;;;;;;5001445;28;20027;-77
2022/01/12 14:38:38;;;;;;;48.70;13.35;;;30.80;51.20;;;;;;4997506;28;20072;-78
2022/01/12 14:41:05;;;;;;;37.45;9.88;;;30.80;51.30;;;;;;4998295;28;20041;-77
2022/01/12 14:43:32;;;;;;;32.35;7.00;;;30.80;51.40;;;;;;5005680;28;20148;-75
2022/01/12 14:45:58;;;;;;;42.90;7.15;;;30.70;51.40;;;;;;4999666;28;20029;-74
2022/01/12 14:48:25;;;;;;;26.90;6.60;;;30.70;51.70;;;;;;4997572;28;20030;-75
2022/01/12 14:50:53;;;;;;;27.38;5.50;;;30.70;51.70;;;;;;4995426;28;20040;-78
2022/01/12 14:53:21;;;;;;;32.13;6.55;;;30.60;51.80;;;;;;4999722;28;20064;-77
2022/01/12 14:55:51;;;;;;;22.48;6.60;;;30.60;51.80;;;;;;4999449;28;20053;-76
2022/01/12 14:58:19;;;;;;;18.42;5.47;;;30.50;51.60;;;;;;4993708;28;20166;-76
2022/01/12 15:00:47;;;;;;;42.88;9.88;;;30.50;51.90;;;;;;4995613;28;20405;-78
2022/01/12 15:03:14;;;;;;;30.25;5.97;;;30.50;52.30;;;;;;5003578;28;20033;-78
2022/01/12 15:05:42;;;;;;;29.52;5.22;;;30.50;52.30;;;;;;5000367;28;20117;-73
2022/01/12 15:08:10;;;;;;;47.60;7.68;;;30.40;52.50;;;;;;4999748;28;20014;-73
2022/01/12 15:10:37;;;;;;;47.33;6.57;;;30.50;52.90;;;;;;4996658;28;20381;-73
2022/01/12 15:13:14;;;;;;;39.67;5.63;;;30.40;52.30;;;;;;5001857;28;20034;-74
2022/01/12 15:16:20;;;;;;;28.17;5.32;;;30.40;52.40;;;;;;5001775;28;20567;-76
2022/01/12 15:19:27;;;;;;;22.42;7.13;;;30.30;51.90;;;;;;4998115;28;20154;-76
2022/01/12 15:21:53;;;;;;;22.13;4.43;;;30.30;53.00;;;;;;4993240;28;20019;-73
2022/01/12 15:24:19;;;;;;;22.00;4.15;;;30.30;53.80;;;;;;5002706;28;20029;-74
2022/01/12 15:26:46;;;;;;;48.33;6.63;;;30.30;53.90;;;;;;4999275;28;20026;-73
2022/01/12 15:29:12;;;;;;;35.40;7.82;;;30.20;54.60;;;;;;5002295;28;20071;-73
2022/01/12 15:31:40;;;;;;;66.63;9.07;;;30.30;54.10;;;;;;4998908;28;20023;-73
2022/01/12 15:34:07;;;;;;;83.57;11.13;;;30.20;53.80;;;;;;5001658;28;20030;-76
2022/01/12 15:36:33;;;;;;;82.13;13.88;;;30.10;53.80;;;;;;4997498;28;20013;-73
2022/01/12 15:39:00;;;;;;;53.38;8.40;;;30.10;54.00;;;;;;4996646;28;20018;-72
2022/01/12 15:41:26;;;;;;;68.57;10.60;;;30.10;54.60;;;;;;5002177;28;20027;-72
2022/01/12 15:43:53;;;;;;;12.90;4.53;;;30.00;54.50;;;;;;4996327;28;20029;-74
2022/01/12 15:46:19;;;;;;;19.50;5.80;;;30.10;52.60;;;;;;4998167;28;20026;-76
2022/01/12 15:48:46;;;;;;;20.13;4.88;;;30.00;52.50;;;;;;4998531;28;20037;-73
2022/01/12 15:51:12;;;;;;;23.92;5.50;;;29.90;52.90;;;;;;4993752;28;20014;-75
2022/01/12 15:56:24;;;;;;;15.30;4.45;;;29.60;52.40;;;;;;5022413;28;20469;-73
2022/01/12 15:58:51;;;;;;;13.15;4.15;;;29.60;53.10;;;;;;5020422;28;20034;-75
2022/01/12 16:03:17;;;;;;;31.20;8.80;;;29.30;52.90;;;;;;5016213;28;20426;-71
2022/01/12 16:05:43;;;;;;;29.33;8.20;;;29.20;53.90;;;;;;5002655;28;20027;-70
2022/01/12 16:08:10;;;;;;;33.83;8.20;;;29.10;54.00;;;;;;5008586;28;20104;-72
2022/01/12 16:10:38;;;;;;;26.90;7.88;;;29.20;54.40;;;;;;5030735;28;20026;-73